Time;durP1;ratioP1;P1;durP2;ratioP2;P2;SDS_P1;SDS_P2;PMS_P1;PMS_P2;Temp;Humidity;BMP_temperature;BMP_pressure;BME280_temperature;BME280_humidity;BME280_pressure;Samples;Min_cycle;Max_cycle;Signal;HPM_P1;HPM_P2
2021/06/13 02:27:06;;;;;;;;;;;;;;;6.28;85.15;100439.75;4796727;26;19969;-85
2021/06/13 02:29:32;;;;;;;;;;;;;;;6.30;86.01;100432.72;4963289;29;19923;-86
2021/06/13 02:31:58;;;;;;;;;;;;;;;6.17;86.33;100441.66;4963208;29;19919;-84
2021/06/13 02:34:25;;;;;;;;;;;;;;;6.19;85.47;100432.00;4982854;28;19922;-84
2021/06/13 02:36:51;;;;;;;;;;;;;;;6.20;85.54;100433.72;4982534;28;20277;-86
2021/06/13 02:39:17;;;;;;;;;;;;;;;6.13;86.07;100440.84;4963098;28;19930;-81
2021/06/13 02:41:42;;;;;;;;;;;;;;;6.12;85.70;100435.59;4982860;28;20273;-81
2021/06/13 02:44:08;;;;;;;;;;;;;;;6.08;86.37;100440.03;4962042;29;19930;-82
2021/06/13 02:46:33;;;;;;;;;;;;;;;6.03;86.83;100439.25;4964602;28;19930;-81
2021/06/13 02:48:59;;;;;;;;;;;;;;;6.10;86.43;100440.03;4982243;28;19929;-80
2021/06/13 02:51:28;;;;;;;;;;;;;;;6.13;86.11;100439.97;4982443;28;19922;-84
2021/06/13 02:53:55;;;;;;;;;;;;;;;6.22;86.67;100434.56;4962051;29;19921;-84
2021/06/13 02:56:23;;;;;;;;;;;;;;;6.13;85.37;100439.97;4979733;28;20008;-84
2021/06/13 02:59:03;;;;;;;;;;;;;;;6.48;84.04;100439.44;4981957;28;19922;-84
2021/06/13 03:01:30;;;;;;;;;;;;;;;6.33;84.80;100437.03;4964310;28;19923;-85
2021/06/13 03:03:56;;;;;;;;;;;;;;;6.33;83.71;100444.94;4982121;28;19932;-84
2021/06/13 03:06:23;;;;;;;;;;;;;;;6.31;84.05;100449.38;4982896;28;19918;-85
2021/06/13 03:08:49;;;;;;;;;;;;;;;6.15;85.15;100449.56;4962687;28;19922;-89
2021/06/13 03:11:15;;;;;;;;;;;;;;;6.10;85.47;100450.53;4978560;28;19918;-90
2021/06/13 03:13:41;;;;;;;;;;;;;;;6.14;85.75;100454.84;4963102;29;19950;-92
2021/06/13 03:16:07;;;;;;;;;;;;;;;6.14;85.07;100449.59;4962831;29;20206;-90
2021/06/13 03:18:33;;;;;;;;;;;;;;;6.02;85.27;100449.78;4981438;28;19926;-91
2021/06/13 03:21:00;;;;;;;;;;;;;;;6.09;85.30;100454.06;4962411;29;19926;-91
2021/06/13 03:23:27;;;;;;;;;;;;;;;6.02;86.61;100455.03;4965306;28;20005;-91
2021/06/13 03:25:53;;;;;;;;;;;;;;;5.96;86.04;100462.09;4966577;28;19941;-91
2021/06/13 03:28:19;;;;;;;;;;;;;;;5.99;86.40;100464.69;4966252;28;19922;-91
2021/06/13 03:30:44;;;;;;;;;;;;;;;5.96;86.25;100470.00;4965710;28;19922;-90
2021/06/13 03:33:10;;;;;;;;;;;;;;;5.90;87.25;100467.41;4982918;28;19962;-91
2021/06/13 03:35:36;;;;;;;;;;;;;;;6.00;86.86;100471.72;4966189;28;19922;-91
2021/06/13 03:38:02;;;;;;;;;;;;;;;6.03;85.68;100469.91;4965839;28;19921;-89
2021/06/13 03:40:27;;;;;;;;;;;;;;;5.99;86.40;100464.69;4965441;28;19985;-88
2021/06/13 03:42:54;;;;;;;;;;;;;;;6.02;85.79;100468.19;4965556;28;19927;-90
2021/06/13 03:45:21;;;;;;;;;;;;;;;5.93;86.56;100475.25;4965196;28;19922;-90
2021/06/13 03:47:48;;;;;;;;;;;;;;;5.94;86.23;100476.16;4965528;28;20005;-90
2021/06/13 03:50:15;;;;;;;;;;;;;;;5.90;86.32;100483.19;4965579;28;19933;-84
2021/06/13 03:52:41;;;;;;;;;;;;;;;5.93;86.42;100491.03;4981113;28;19965;-83
2021/06/13 03:55:07;;;;;;;;;;;;;;;5.98;86.43;100484.03;4981170;28;20236;-85
2021/06/13 03:57:33;;;;;;;;;;;;;;;5.96;86.01;100496.31;4964042;28;19929;-84
2021/06/13 03:59:58;;;;;;;;;;;;;;;5.86;86.47;100499.91;4963593;28;19922;-84
2021/06/13 04:02:24;;;;;;;;;;;;;;;5.84;86.31;100501.72;4964145;28;19922;-81
2021/06/13 04:04:51;;;;;;;;;;;;;;;5.92;86.42;100509.47;4981090;28;20325;-83
2021/06/13 12:34:20;;;;;;;;;;;;;;;6.10;87.65;100532.13;4286784;26;20171;-82
2021/06/13 12:36:52;;;;;;;;;;;;;;;6.09;87.66;100533.00;4978067;28;19922;-81
2021/06/13 12:39:24;;;;;;;;;;;;;;;6.12;88.48;100535.59;4977695;28;19926;-82
2021/06/13 12:41:50;;;;;;;;;;;;;;;6.08;88.74;100528.59;4971821;28;19929;-81
2021/06/13 12:44:15;;;;;;;;;;;;;;;6.03;88.39;100525.16;4969854;28;20269;-81
2021/06/13 12:46:40;;;;;;;;;;;;;;;6.20;90.25;100525.81;4968831;28;19922;-82
2021/06/13 12:49:06;;;;;;;;;;;;;;;6.09;87.54;100518.06;4967789;28;19980;-82
2021/06/13 12:51:33;;;;;;;;;;;;;;;6.06;87.27;100523.38;4976740;28;19988;-84
2021/06/13 12:53:59;;;;;;;;;;;;;;;6.15;89.54;100518.00;4950414;29;19938;-84
2021/06/13 12:56:24;;;;;;;;;;;;;;;6.13;87.39;100514.50;4966826;28;19926;-83
2021/06/13 12:58:51;;;;;;;;;;;;;;;6.03;87.64;100520.81;4958419;28;19922;-84
2021/06/13 13:01:17;;;;;;;;;;;;;;;6.38;88.44;100518.56;4951525;28;19957;-84
2021/06/13 13:03:43;;;;;;;;;;;;;;;6.25;87.81;100513.47;4968962;28;20293;-82
2021/06/13 13:06:10;;;;;;;;;;;;;;;6.16;87.56;100511.84;4967920;28;19933;-83
2021/06/13 13:08:47;;;;;;;;;;;;;;;6.09;88.54;100499.66;4968373;28;19922;-82
2021/06/13 13:11:21;;;;;;;;;;;;;;;6.17;87.71;100508.34;4968874;28;19956;-83
2021/06/13 13:13:51;;;;;;;;;;;;;;;6.05;88.15;100500.59;4948499;28;19933;-83
2021/06/13 13:16:20;;;;;;;;;;;;;;;6.08;89.20;100502.28;4952051;28;19937;-83
2021/06/13 13:18:46;;;;;;;;;;;;;;;6.04;88.44;100497.97;4969557;28;19922;-83
2021/06/13 13:21:11;;;;;;;;;;;;;;;6.11;88.04;100494.38;4950947;28;20336;-83
2021/06/13 13:23:43;;;;;;;;;;;;;;;6.10;87.71;100490.88;4970155;28;20005;-83
2021/06/13 13:26:09;;;;;;;;;;;;;;;6.27;88.21;100489.75;4966408;28;19985;-83
2021/06/13 13:28:40;;;;;;;;;;;;;;;6.23;88.42;100491.56;4959764;28;19945;-83
2021/06/13 13:31:12;;;;;;;;;;;;;;;6.15;89.25;100490.81;4969421;28;19961;-83
2021/06/13 13:33:38;;;;;;;;;;;;;;;6.17;88.64;100494.28;4968423;28;19922;-84
2021/06/13 13:36:04;;;;;;;;;;;;;;;6.16;89.09;100497.84;4970198;28;19933;-84
2021/06/13 13:38:33;;;;;;;;;;;;;;;6.14;88.58;100494.31;4967099;28;19922;-83
2021/06/13 13:40:59;;;;;;;;;;;;;;;6.20;89.49;100488.97;4971942;28;19922;-83
2021/06/13 13:43:25;;;;;;;;;;;;;;;6.18;88.78;100488.16;4965800;28;19934;-84
2021/06/13 13:45:51;;;;;;;;;;;;;;;6.08;88.65;100492.66;4966067;28;19926;-84
2021/06/13 13:48:20;;;;;;;;;;;;;;;6.14;88.85;100481.16;4965469;28;20009;-83
2021/06/13 13:50:49;;;;;;;;;;;;;;;6.13;88.06;100487.34;4959695;28;19922;-82
2021/06/13 13:53:30;;;;;;;;;;;;;;;6.20;88.99;100488.97;4966112;28;20032;-83
2021/06/13 13:55:59;;;;;;;;;;;;;;;6.12;89.47;100488.22;4966165;28;20032;-84
2021/06/13 13:58:29;;;;;;;;;;;;;;;6.13;89.34;100497.88;4970410;28;19965;-83
2021/06/13 14:00:57;;;;;;;;;;;;;;;6.10;89.32;100476.84;4971769;28;19922;-83
2021/06/13 14:03:27;;;;;;;;;;;;;;;6.11;89.14;100474.22;4953533;28;19922;-83
2021/06/13 14:05:53;;;;;;;;;;;;;;;6.11;89.41;100473.31;4969511;28;20021;-83
2021/06/13 14:08:22;;;;;;;;;;;;;;;6.18;89.46;100472.34;4976281;28;19933;-83
2021/06/13 14:10:47;;;;;;;;;;;;;;;6.11;89.14;100461.06;4971341;28;19922;-84
2021/06/13 14:13:13;;;;;;;;;;;;;;;6.20;89.17;100461.81;4952696;28;19923;-83
2021/06/13 14:15:39;;;;;;;;;;;;;;;6.31;90.46;100463.38;4972847;28;21139;-83
2021/06/13 14:18:04;;;;;;;;;;;;;;;6.33;89.87;100456.34;4973735;28;19933;-82
2021/06/13 14:20:30;;;;;;;;;;;;;;;6.30;88.95;100453.75;4971260;28;20210;-82
2021/06/13 14:22:55;;;;;;;;;;;;;;;6.19;89.53;100458.31;4958075;29;20218;-83
2021/06/13 14:25:22;;;;;;;;;;;;;;;6.24;89.33;100452.97;4969992;28;19926;-83
2021/06/13 14:27:48;;;;;;;;;;;;;;;6.18;89.16;100453.94;4967252;28;19922;-82
2021/06/13 14:30:14;;;;;;;;;;;;;;;6.22;89.74;100455.63;4970565;28;19937;-83
2021/06/13 14:32:39;;;;;;;;;;;;;;;6.25;89.78;100452.94;4966668;28;20214;-84
2021/06/13 14:35:05;;;;;;;;;;;;;;;6.36;89.82;100448.38;4970588;28;19925;-83
2021/06/13 14:37:33;;;;;;;;;;;;;;;6.33;89.12;100443.19;4971469;28;19922;-83
2021/06/13 14:40:00;;;;;;;;;;;;;;;6.32;89.41;100445.84;4956365;28;19922;-83
2021/06/13 14:42:26;;;;;;;;;;;;;;;6.34;88.97;100446.69;4969271;28;19932;-83
2021/06/13 14:44:52;;;;;;;;;;;;;;;6.41;89.70;100443.06;4957072;28;20029;-83
2021/06/13 14:47:17;;;;;;;;;;;;;;;6.35;89.12;100437.88;4976306;28;20021;-83
2021/06/13 14:49:42;;;;;;;;;;;;;;;6.47;89.48;100442.97;4973479;28;19926;-83
2021/06/13 14:52:08;;;;;;;;;;;;;;;6.53;89.92;100444.66;4972193;28;20262;-82
2021/06/13 14:54:34;;;;;;;;;;;;;;;6.46;89.12;100440.34;4952842;28;19985;-82
2021/06/13 14:57:00;;;;;;;;;;;;;;;6.47;89.11;100435.06;4970983;28;20332;-82
2021/06/13 14:59:25;;;;;;;;;;;;;;;6.65;90.25;100444.47;4968625;28;20374;-83
2021/06/13 15:01:51;;;;;;;;;;;;;;;6.61;89.79;100437.50;4950522;28;19930;-84
2021/06/13 15:04:16;;;;;;;;;;;;;;;6.48;89.64;100436.81;4955529;28;19933;-83
2021/06/13 15:06:41;;;;;;;;;;;;;;;6.47;90.70;100439.47;4973407;28;20225;-83
2021/06/13 15:09:07;;;;;;;;;;;;;;;6.53;89.39;100434.13;4970892;28;19984;-83
2021/06/13 15:11:32;;;;;;;;;;;;;;;6.53;89.74;100429.72;4954957;28;19945;-84
2021/06/13 15:14:00;;;;;;;;;;;;;;;6.54;89.91;100433.19;4972531;28;19929;-83
2021/06/13 15:16:26;;;;;;;;;;;;;;;6.52;90.86;100417.41;4960559;28;19937;-83
2021/06/13 15:18:52;;;;;;;;;;;;;;;6.58;90.74;100418.25;4972946;28;20001;-82
2021/06/13 15:21:18;;;;;;;;;;;;;;;6.54;90.20;100412.13;4975029;28;20155;-83
2021/06/13 15:23:43;;;;;;;;;;;;;;;6.62;89.55;100412.00;4952124;28;19933;-83
2021/06/13 15:26:09;;;;;;;;;;;;;;;6.55;89.91;100422.63;4969949;28;19922;-83
2021/06/13 15:28:34;;;;;;;;;;;;;;;6.57;89.44;100419.97;4951734;28;20072;-82
2021/06/13 15:30:59;;;;;;;;;;;;;;;6.60;89.87;100414.66;4955190;28;20534;-83
2021/06/13 15:33:26;;;;;;;;;;;;;;;6.59;89.69;100406.78;4968165;28;20333;-84
2021/06/13 15:35:52;;;;;;;;;;;;;;;6.59;89.88;100402.41;4971682;28;20337;-83
2021/06/13 15:38:18;;;;;;;;;;;;;;;6.54;89.42;100404.22;4952280;28;20417;-83
2021/06/13 15:40:44;;;;;;;;;;;;;;;6.55;89.98;100406.84;4971326;28;20032;-83
2021/06/13 15:43:09;;;;;;;;;;;;;;;6.74;90.54;100401.28;4967783;28;19926;-84
2021/06/13 15:45:36;;;;;;;;;;;;;;;6.68;90.00;100398.75;4951570;28;19949;-82
2021/06/13 15:48:03;;;;;;;;;;;;;;;6.60;90.03;100398.88;4968302;28;20609;-83
2021/06/13 15:50:29;;;;;;;;;;;;;;;7.91;92.13;100392.81;4966992;28;19922;-83
2021/06/13 15:52:55;;;;;;;;;;;;;;;7.87;91.83;100391.19;4964718;28;19922;-82
2021/06/13 15:55:35;;;;;;;;;;;;;;;7.45;91.90;100395.56;4954402;28;20332;-83
2021/06/13 15:58:01;;;;;;;;;;;;;;;8.79;91.34;100389.00;4946584;28;19922;-82
2021/06/13 16:00:27;;;;;;;;;;;;;;;7.79;92.49;100392.19;4954624;28;20060;-82
2021/06/13 16:02:53;;;;;;;;;;;;;;;7.54;92.07;100375.16;4950964;28;20021;-84
2021/06/13 16:05:18;;;;;;;;;;;;;;;10.49;91.02;100373.47;4973847;28;19922;-83
2021/06/13 16:07:45;;;;;;;;;;;;;;;8.67;95.43;100381.38;4968607;28;19918;-81
2021/06/13 16:10:12;;;;;;;;;;;;;;;8.18;92.42;100383.41;4961187;28;20087;-80
2021/06/13 16:12:38;;;;;;;;;;;;;;;7.74;92.67;100383.53;4968126;28;19993;-82
2021/06/13 16:15:04;;;;;;;;;;;;;;;7.71;92.83;100380.09;4957059;28;20016;-82
2021/06/13 16:17:29;;;;;;;;;;;;;;;7.51;89.39;100370.81;4955486;28;19922;-82
2021/06/13 16:19:55;;;;;;;;;;;;;;;7.38;90.81;100369.34;4961192;28;19922;-82
2021/06/13 16:22:20;;;;;;;;;;;;;;;7.44;93.09;100372.72;4968237;28;19930;-83
2021/06/13 16:24:46;;;;;;;;;;;;;;;7.72;90.95;100372.16;4971077;28;20000;-82
2021/06/13 16:27:14;;;;;;;;;;;;;;;7.48;89.26;100367.38;4968800;28;19922;-85
2021/06/13 16:29:39;;;;;;;;;;;;;;;7.46;89.84;100370.91;4974138;28;19922;-83
2021/06/13 16:32:05;;;;;;;;;;;;;;;7.25;91.23;100369.56;4953473;28;19989;-85
2021/06/13 16:34:30;;;;;;;;;;;;;;;7.36;89.70;100365.88;4948732;29;20315;-84
2021/06/13 16:36:58;;;;;;;;;;;;;;;7.27;88.44;100364.28;4952799;28;19982;-83
2021/06/13 16:39:24;;;;;;;;;;;;;;;7.37;87.91;100364.97;4967977;28;19933;-82
2021/06/13 16:41:49;;;;;;;;;;;;;;;7.25;88.43;100355.53;4952603;28;19923;-84
2021/06/13 16:44:15;;;;;;;;;;;;;;;7.16;88.62;100361.00;4973738;28;19922;-82
2021/06/13 16:46:40;;;;;;;;;;;;;;;7.19;88.29;100372.34;4959836;28;19922;-83
2021/06/13 16:49:06;;;;;;;;;;;;;;;7.27;89.58;100364.28;4960922;28;19938;-82
2021/06/13 16:51:31;;;;;;;;;;;;;;;7.45;91.49;100363.91;4968629;28;19930;-83
2021/06/13 16:53:58;;;;;;;;;;;;;;;7.41;91.60;100364.00;4962517;28;19932;-83
2021/06/13 16:56:24;;;;;;;;;;;;;;;7.19;88.44;100367.06;4969716;28;19934;-85
2021/06/13 16:58:49;;;;;;;;;;;;;;;7.32;89.33;100361.56;4970464;28;19926;-84
2021/06/13 17:01:15;;;;;;;;;;;;;;;7.26;88.69;100359.94;4955734;28;20213;-82
2021/06/13 17:03:41;;;;;;;;;;;;;;;7.38;89.61;100364.06;4951314;28;19922;-83
2021/06/13 17:06:07;;;;;;;;;;;;;;;7.36;87.91;100357.97;4952111;28;19930;-82
2021/06/13 17:08:33;;;;;;;;;;;;;;;7.23;87.94;100362.63;4951641;28;20048;-82
2021/06/13 17:10:58;;;;;;;;;;;;;;;7.35;92.27;100359.72;4963868;28;19922;-82
2021/06/13 17:13:25;;;;;;;;;;;;;;;7.20;88.14;100354.78;4968919;28;19929;-82
2021/06/13 17:15:51;;;;;;;;;;;;;;;7.26;91.55;100354.66;4971101;28;20298;-84
2021/06/13 17:18:16;;;;;;;;;;;;;;;7.17;88.41;100362.75;4952580;28;19937;-82
2021/06/13 17:20:42;;;;;;;;;;;;;;;7.19;88.66;100359.16;4971236;28;19922;-83
2021/06/13 17:25:44;;;;;;;;;;;;;;;7.23;87.80;100359.97;4975373;28;19962;-84
2021/06/13 17:28:10;;;;;;;;;;;;;;;7.27;89.14;100354.63;4975918;28;19922;-84
2021/06/13 17:30:36;;;;;;;;;;;;;;;7.23;88.01;100352.06;4954448;28;20434;-83
2021/06/13 17:33:02;;;;;;;;;;;;;;;7.23;88.01;100346.81;4953342;28;20440;-83
2021/06/13 17:35:27;;;;;;;;;;;;;;;7.19;87.87;100347.75;4966133;28;19963;-83
2021/06/13 17:37:56;;;;;;;;;;;;;;;7.14;87.32;100352.25;4955472;28;19965;-83
2021/06/13 17:40:22;;;;;;;;;;;;;;;7.13;87.45;100354.00;4967250;28;19957;-82
2021/06/13 17:42:48;;;;;;;;;;;;;;;7.16;88.76;100347.81;4965761;28;19964;-82
2021/06/13 17:45:14;;;;;;;;;;;;;;;7.20;88.76;100347.72;4966518;28;19988;-82
2021/06/13 17:47:40;;;;;;;;;;;;;;;7.10;87.36;100351.44;4970864;28;20340;-81
2021/06/13 17:50:06;;;;;;;;;;;;;;;7.16;87.07;100345.19;4971122;28;20040;-82
2021/06/13 17:52:33;;;;;;;;;;;;;;;7.15;87.13;100346.06;4960522;28;19923;-83
2021/06/13 17:54:59;;;;;;;;;;;;;;;7.10;86.85;100351.44;4967266;28;19930;-83
2021/06/13 17:57:33;;;;;;;;;;;;;;;7.10;86.37;100346.19;4971209;28;19923;-82
2021/06/13 17:59:59;;;;;;;;;;;;;;;7.27;86.71;100352.00;4967496;28;19930;-82
2021/06/13 18:02:25;;;;;;;;;;;;;;;7.06;87.00;100334.81;4949669;28;19940;-83
2021/06/13 18:04:50;;;;;;;;;;;;;;;7.06;86.76;100336.59;4969518;28;20020;-82
2021/06/13 18:07:17;;;;;;;;;;;;;;;7.02;88.00;100338.41;4949241;28;19929;-86
2021/06/13 18:09:43;;;;;;;;;;;;;;;7.06;87.60;100344.50;4965254;28;19968;-84
2021/06/13 18:12:09;;;;;;;;;;;;;;;6.96;87.25;100346.44;4950661;28;19929;-85
2021/06/13 18:14:35;;;;;;;;;;;;;;;7.01;86.79;100344.56;4950668;28;20275;-83
2021/06/13 18:17:02;;;;;;;;;;;;;;;6.99;88.01;100337.59;4971840;28;20384;-84
2021/06/13 18:19:27;;;;;;;;;;;;;;;6.97;87.16;100342.88;4966334;28;20298;-82
2021/06/13 18:21:53;;;;;;;;;;;;;;;7.06;88.55;100334.81;4975286;28;19933;-85
2021/06/13 18:24:19;;;;;;;;;;;;;;;7.00;86.76;100340.19;4977145;28;19973;-82
2021/06/13 18:26:44;;;;;;;;;;;;;;;6.95;88.11;100336.78;4978570;28;19922;-83
2021/06/13 18:29:10;;;;;;;;;;;;;;;7.07;89.01;100335.69;4967429;28;19950;-83
2021/06/13 18:31:35;;;;;;;;;;;;;;;6.99;88.34;100343.75;4954065;28;19922;-83
2021/06/13 18:34:01;;;;;;;;;;;;;;;6.97;88.01;100337.63;4960623;28;19961;-83
2021/06/13 18:36:26;;;;;;;;;;;;;;;6.95;88.27;100331.53;4977032;28;20320;-83
2021/06/13 18:38:52;;;;;;;;;;;;;;;6.93;88.32;100333.31;4954796;28;20187;-86
2021/06/13 18:41:17;;;;;;;;;;;;;;;6.93;87.88;100330.69;4976610;28;20326;-85
2021/06/13 18:43:43;;;;;;;;;;;;;;;7.07;88.40;100331.28;4965566;28;19930;-84
2021/06/13 18:46:12;;;;;;;;;;;;;;;6.95;87.67;100331.53;4972210;28;20326;-85
2021/06/13 18:48:37;;;;;;;;;;;;;;;6.91;87.96;100330.72;4960732;28;19989;-84
2021/06/13 18:51:02;;;;;;;;;;;;;;;6.99;87.76;100327.94;4975984;28;19934;-85
2021/06/13 18:53:28;;;;;;;;;;;;;;;7.02;88.62;100327.00;4954418;28;19927;-84
2021/06/13 18:55:53;;;;;;;;;;;;;;;6.98;88.69;100334.09;4963343;28;19941;-84
2021/06/13 18:58:23;;;;;;;;;;;;;;;7.00;87.72;100337.56;4973956;28;19989;-83
2021/06/13 19:00:51;;;;;;;;;;;;;;;6.90;88.35;100333.38;4974719;28;19933;-83
2021/06/13 19:03:18;;;;;;;;;;;;;;;6.94;88.61;100335.06;4955391;29;19941;-83
2021/06/13 19:05:43;;;;;;;;;;;;;;;6.88;88.39;100332.56;4977385;28;19934;-84
2021/06/13 19:08:08;;;;;;;;;;;;;;;7.02;87.47;100337.53;4975410;28;19991;-83
2021/06/13 19:10:34;;;;;;;;;;;;;;;6.94;88.44;100329.81;4966240;28;20163;-83
2021/06/13 19:12:59;;;;;;;;;;;;;;;7.00;88.20;100334.94;4972861;28;19922;-83
2021/06/13 19:15:25;;;;;;;;;;;;;;;7.04;87.74;100326.06;4972145;28;19926;-82
2021/06/13 19:17:50;;;;;;;;;;;;;;;6.93;88.62;100333.31;4955786;28;19937;-84
2021/06/13 19:20:16;;;;;;;;;;;;;;;6.99;87.28;100327.94;4956928;28;19926;-84
2021/06/13 19:22:41;;;;;;;;;;;;;;;6.96;88.28;100328.00;4958800;28;19922;-83
2021/06/13 19:25:08;;;;;;;;;;;;;;;6.90;87.53;100333.38;4949046;28;20009;-83
2021/06/13 19:27:34;;;;;;;;;;;;;;;6.98;87.48;100335.88;4962824;28;19923;-85
2021/06/13 19:29:59;;;;;;;;;;;;;;;7.02;87.21;100329.63;4956780;28;20014;-82
2021/06/13 19:32:25;;;;;;;;;;;;;;;6.95;88.64;100331.53;4951471;28;19957;-82
2021/06/13 19:34:50;;;;;;;;;;;;;;;6.93;87.57;100332.47;4955060;28;19930;-84
2021/06/13 19:37:16;;;;;;;;;;;;;;;6.96;88.13;100333.25;4973159;28;19941;-82
2021/06/13 19:39:41;;;;;;;;;;;;;;;6.97;87.64;100339.41;4954878;28;20063;-83
2021/06/13 19:42:06;;;;;;;;;;;;;;;6.94;87.94;100340.34;4952453;28;19949;-82
2021/06/13 19:44:32;;;;;;;;;;;;;;;7.01;88.58;100349.00;4956290;28;19922;-85
2021/06/13 19:46:57;;;;;;;;;;;;;;;6.98;87.81;100342.00;4956079;28;19976;-85
2021/06/13 19:49:23;;;;;;;;;;;;;;;6.97;87.95;100348.16;4950661;28;20253;-82
2021/06/13 19:51:49;;;;;;;;;;;;;;;6.90;89.13;100344.78;4953161;28;19933;-83
2021/06/13 19:54:16;;;;;;;;;;;;;;;6.95;88.07;100346.47;4975626;28;20225;-82
2021/06/13 19:56:41;;;;;;;;;;;;;;;6.92;89.53;100355.28;4971557;28;19938;-82
2021/06/13 19:59:07;;;;;;;;;;;;;;;6.94;88.74;100345.63;4951915;29;19930;-83
2021/06/13 20:01:32;;;;;;;;;;;;;;;6.94;87.91;100348.25;4961319;28;19926;-82
2021/06/13 20:03:59;;;;;;;;;;;;;;;6.94;88.18;100353.50;4972251;28;19922;-83
2021/06/13 20:06:24;;;;;;;;;;;;;;;7.00;88.42;100350.72;4955368;28;19930;-83
2021/06/13 20:08:49;;;;;;;;;;;;;;;6.93;88.16;100346.50;4971270;28;19985;-82
2021/06/13 20:11:15;;;;;;;;;;;;;;;7.03;88.26;100353.31;4973769;28;19933;-82
2021/06/13 20:13:40;;;;;;;;;;;;;;;6.98;88.18;100349.91;4957286;28;19977;-83
2021/06/13 20:16:05;;;;;;;;;;;;;;;6.88;88.01;100356.25;4957198;28;20017;-82
2021/06/13 20:18:32;;;;;;;;;;;;;;;6.99;87.89;100349.03;4975428;28;20021;-82
2021/06/13 20:21:00;;;;;;;;;;;;;;;7.00;88.24;100349.88;4968818;28;19929;-84
2021/06/13 20:23:26;;;;;;;;;;;;;;;6.91;88.14;100351.78;4957659;28;20008;-82
2021/06/13 20:25:52;;;;;;;;;;;;;;;6.91;88.17;100353.56;4958138;28;19921;-82
2021/06/13 20:28:18;;;;;;;;;;;;;;;6.94;88.48;100361.41;4975582;28;19922;-84
2021/06/13 20:30:44;;;;;;;;;;;;;;;7.02;88.57;100356.88;4957423;28;19921;-83
2021/06/13 20:33:15;;;;;;;;;;;;;;;6.93;88.44;100358.81;4974598;28;19922;-83
2021/06/13 20:35:44;;;;;;;;;;;;;;;6.98;88.08;100359.59;4953379;29;19992;-82
2021/06/13 20:38:13;;;;;;;;;;;;;;;7.02;88.65;100356.88;4954054;28;19980;-86
2021/06/13 20:40:39;;;;;;;;;;;;;;;6.93;88.38;100354.41;4976326;28;19933;-82
2021/06/13 20:43:05;;;;;;;;;;;;;;;6.95;88.21;100352.59;4972525;28;20229;-82
2021/06/13 20:45:30;;;;;;;;;;;;;;;6.91;88.98;100348.31;4961785;28;19923;-82
2021/06/13 20:48:00;;;;;;;;;;;;;;;7.01;87.69;100355.13;4965751;28;19923;-82
2021/06/13 20:50:27;;;;;;;;;;;;;;;6.97;88.27;100353.44;4969240;28;20258;-83
2021/06/13 20:52:52;;;;;;;;;;;;;;;6.96;88.05;100354.34;4950225;28;20225;-82
2021/06/13 20:55:19;;;;;;;;;;;;;;;6.99;88.10;100346.38;4966816;28;19930;-81
2021/06/13 20:57:45;;;;;;;;;;;;;;;6.95;88.77;100352.59;4965039;28;19931;-84
2021/06/13 21:00:14;;;;;;;;;;;;;;;6.95;88.50;100349.97;4955880;28;19932;-83
2021/06/13 21:02:40;;;;;;;;;;;;;;;7.07;88.10;100348.88;4950707;28;19962;-82
2021/06/13 21:05:06;;;;;;;;;;;;;;;7.02;88.11;100345.44;4948196;29;19977;-84
2021/06/13 21:07:31;;;;;;;;;;;;;;;7.02;87.71;100338.41;4955115;28;19941;-82
2021/06/13 21:09:56;;;;;;;;;;;;;;;6.96;88.08;100346.44;4933321;28;905426;-83
2021/06/13 21:12:22;;;;;;;;;;;;;;;6.89;88.50;100343.06;4949191;29;19992;-83
2021/06/13 21:14:47;;;;;;;;;;;;;;;6.95;88.24;100341.19;4974974;28;20372;-83
2021/06/13 21:17:16;;;;;;;;;;;;;;;6.98;88.69;100347.28;4981372;28;19925;-84
2021/06/13 21:19:41;;;;;;;;;;;;;;;7.00;88.60;100342.84;4965859;28;19922;-82
2021/06/13 21:22:06;;;;;;;;;;;;;;;7.04;87.76;100341.88;4970433;28;19933;-84
2021/06/13 21:24:32;;;;;;;;;;;;;;;7.04;88.40;100341.88;4949711;28;20265;-83
2021/06/13 21:27:00;;;;;;;;;;;;;;;7.02;88.68;100342.81;4967024;28;20013;-83
2021/06/13 21:29:26;;;;;;;;;;;;;;;6.97;88.73;100348.16;4973167;28;19922;-82
2021/06/13 21:31:52;;;;;;;;;;;;;;;7.05;87.74;100346.28;4956054;28;19928;-82
2021/06/13 21:34:17;;;;;;;;;;;;;;;7.02;87.71;100338.41;4969754;28;20226;-82
2021/06/13 21:36:43;;;;;;;;;;;;;;;7.00;88.01;100342.84;4968674;28;19977;-83
2021/06/13 21:39:10;;;;;;;;;;;;;;;6.93;87.88;100335.97;4964589;28;19942;-83
2021/06/13 21:41:35;;;;;;;;;;;;;;;7.02;87.99;100338.41;4962209;28;19932;-84
2021/06/13 21:44:01;;;;;;;;;;;;;;;7.03;87.97;100339.28;4968726;28;19965;-85
2021/06/13 21:46:26;;;;;;;;;;;;;;;7.01;87.57;100347.22;4947098;28;19933;-85
2021/06/13 21:48:51;;;;;;;;;;;;;;;7.06;87.20;100349.75;4950251;28;20010;-83
2021/06/13 21:51:17;;;;;;;;;;;;;;;6.92;87.81;100350.03;4949777;29;20061;-83
2021/06/13 21:53:50;;;;;;;;;;;;;;;7.03;87.38;100349.81;4942202;29;19927;-83
2021/06/13 21:56:16;;;;;;;;;;;;;;;7.05;86.99;100350.66;4959264;29;19930;-84
2021/06/13 21:58:42;;;;;;;;;;;;;;;7.04;87.24;100348.94;4944517;29;20290;-84
2021/06/13 22:01:07;;;;;;;;;;;;;;;7.03;87.64;100345.41;4954485;28;19933;-83
2021/06/13 22:03:32;;;;;;;;;;;;;;;6.99;87.30;100341.13;4979517;28;20332;-85
2021/06/13 22:05:58;;;;;;;;;;;;;;;7.04;87.36;100344.53;4962758;28;20203;-83
2021/06/13 22:08:23;;;;;;;;;;;;;;;7.04;87.15;100336.63;4959173;28;19923;-83
2021/06/13 22:10:48;;;;;;;;;;;;;;;6.99;87.60;100341.13;4957264;28;20262;-84
2021/06/13 22:13:14;;;;;;;;;;;;;;;7.07;88.17;100333.94;4977220;28;20197;-83
2021/06/13 22:15:39;;;;;;;;;;;;;;;6.98;88.18;100335.88;4963013;28;19931;-85
2021/06/13 22:18:06;;;;;;;;;;;;;;;7.05;87.22;100333.09;4946810;29;20218;-85
2021/06/13 22:20:32;;;;;;;;;;;;;;;6.97;87.81;100345.53;4965029;29;19922;-83
2021/06/13 22:22:58;;;;;;;;;;;;;;;6.97;88.18;100344.66;4966561;29;20369;-85
2021/06/13 22:25:23;;;;;;;;;;;;;;;7.03;87.46;100340.13;4966311;29;20045;-84
2021/06/13 22:27:48;;;;;;;;;;;;;;;6.96;87.91;100335.03;4966302;29;20017;-83
2021/06/13 22:30:14;;;;;;;;;;;;;;;7.03;87.72;100326.97;4948797;29;19949;-85
2021/06/13 22:32:40;;;;;;;;;;;;;;;7.01;87.57;100331.41;4948883;29;19929;-82
2021/06/13 22:35:08;;;;;;;;;;;;;;;7.03;87.72;100334.00;4965374;29;19996;-84
2021/06/13 22:37:33;;;;;;;;;;;;;;;7.04;88.04;100326.06;4962457;28;19977;-84
2021/06/13 22:39:59;;;;;;;;;;;;;;;6.98;89.14;100326.19;4987846;28;19922;-87
2021/06/13 22:42:24;;;;;;;;;;;;;;;7.01;87.60;100326.13;4969926;28;19922;-86
2021/06/13 22:44:50;;;;;;;;;;;;;;;7.02;88.18;100324.34;4972189;28;20013;-85
2021/06/13 22:47:15;;;;;;;;;;;;;;;7.03;86.95;100328.75;4989524;28;19972;-84
2021/06/13 22:49:40;;;;;;;;;;;;;;;6.94;87.85;100329.81;4989991;28;19922;-85
2021/06/13 22:52:06;;;;;;;;;;;;;;;7.04;88.11;100328.72;4989051;28;20187;-86
2021/06/13 22:54:31;;;;;;;;;;;;;;;7.01;87.10;100320.88;4971481;28;19933;-84
2021/06/13 22:56:57;;;;;;;;;;;;;;;6.97;87.84;100326.22;4989787;28;20209;-86
2021/06/13 22:59:23;;;;;;;;;;;;;;;6.97;87.99;100331.50;4970857;28;19922;-85
2021/06/13 23:01:49;;;;;;;;;;;;;;;7.00;87.53;100321.75;4971972;28;19933;-84
2021/06/13 23:04:15;;;;;;;;;;;;;;;7.04;87.27;100320.81;4986724;28;20290;-83
2021/06/13 23:06:40;;;;;;;;;;;;;;;6.96;87.99;100324.50;4966780;29;19993;-83
2021/06/13 23:09:08;;;;;;;;;;;;;;;6.98;87.70;100323.56;4976245;28;19988;-83
2021/06/13 23:11:33;;;;;;;;;;;;;;;7.02;87.61;100317.34;4967114;29;19926;-85
2021/06/13 23:13:59;;;;;;;;;;;;;;;7.00;87.22;100319.13;4966278;28;19954;-85
2021/06/13 23:16:24;;;;;;;;;;;;;;;7.14;87.56;100320.63;4949545;29;19922;-86
2021/06/13 23:18:49;;;;;;;;;;;;;;;7.07;87.09;100310.22;4949095;29;19970;-85
2021/06/13 23:21:15;;;;;;;;;;;;;;;7.11;87.01;100316.28;4949527;28;19930;-85
2021/06/13 23:23:40;;;;;;;;;;;;;;;6.99;86.79;100312.13;4966165;29;20329;-86
